createdAt,value
2022-07-30T00:03:09.968Z,16.94
2022-07-30T00:08:14.155Z,16.77
2022-07-30T00:13:18.299Z,16.65
2022-07-30T00:18:22.578Z,16.60
2022-07-30T00:23:26.604Z,16.47
2022-07-30T00:28:30.774Z,16.23
2022-07-30T00:33:34.948Z,16.03
2022-07-30T00:38:37.183Z,15.89
2022-07-30T00:43:41.378Z,15.77
2022-07-30T00:48:45.555Z,15.71
2022-07-30T00:53:49.686Z,15.63
2022-07-30T00:58:53.862Z,15.52
2022-07-30T01:03:58.003Z,15.43
2022-07-30T01:09:02.216Z,15.41
2022-07-30T01:14:06.325Z,15.39
2022-07-30T01:19:10.512Z,15.16
2022-07-30T01:24:14.656Z,15.03
2022-07-30T01:29:18.806Z,15.07
2022-07-30T01:34:22.970Z,14.97
2022-07-30T01:39:27.106Z,14.87
2022-07-30T01:44:31.273Z,14.70
2022-07-30T01:49:35.442Z,14.66
2022-07-30T01:54:39.577Z,14.57
2022-07-30T01:59:43.746Z,14.50
2022-07-30T02:04:47.899Z,14.42
2022-07-30T02:09:52.084Z,14.41
2022-07-30T02:14:56.256Z,14.37
2022-07-30T02:20:00.423Z,14.25
2022-07-30T02:25:02.682Z,14.22
2022-07-30T02:30:06.848Z,14.16
2022-07-30T02:35:09.229Z,14.18
2022-07-30T02:40:13.357Z,14.14
2022-07-30T02:45:15.541Z,14.12
2022-07-30T02:50:19.702Z,14.10
2022-07-30T02:55:21.954Z,14.05
2022-07-30T03:00:26.330Z,13.94
2022-07-30T03:05:30.276Z,13.89
2022-07-30T03:10:34.467Z,13.78
2022-07-30T03:15:40.631Z,13.76
2022-07-30T03:20:42.792Z,13.70
2022-07-30T03:25:46.956Z,13.64
2022-07-30T03:30:51.137Z,13.62
2022-07-30T03:35:55.245Z,13.62
2022-07-30T03:40:59.392Z,13.63
2022-07-30T03:46:03.662Z,13.79
2022-07-30T03:51:07.732Z,13.81
2022-07-30T03:56:11.902Z,13.85
2022-07-30T04:01:16.166Z,13.92
2022-07-30T04:06:20.235Z,13.88
2022-07-30T04:11:41.078Z,13.88
2022-07-30T04:16:39.827Z,13.88
2022-07-30T04:21:32.698Z,13.94
2022-07-30T04:26:36.844Z,13.93
2022-07-30T04:31:41.461Z,13.90
2022-07-30T04:36:45.160Z,13.92
2022-07-30T04:41:49.618Z,13.98
2022-07-30T04:46:51.669Z,14.05
2022-07-30T04:51:55.793Z,14.13
2022-07-30T04:56:59.943Z,14.24
2022-07-30T05:02:04.217Z,14.40
2022-07-30T05:07:08.247Z,14.60
2022-07-30T05:12:12.440Z,14.76
2022-07-30T05:17:16.586Z,14.94
2022-07-30T05:22:18.822Z,15.07
2022-07-30T05:27:22.989Z,15.25
2022-07-30T05:32:27.188Z,15.43
2022-07-30T05:37:31.331Z,15.60
2022-07-30T05:42:35.507Z,15.76
2022-07-30T05:47:39.794Z,15.94
2022-07-30T05:52:43.815Z,16.06
2022-07-30T05:57:47.981Z,16.17
2022-07-30T06:02:52.128Z,16.28
2022-07-30T06:07:56.290Z,16.44
2022-07-30T06:13:00.497Z,16.57
2022-07-30T06:18:04.619Z,16.72
2022-07-30T06:23:08.734Z,16.84
2022-07-30T06:28:35.900Z,17.02
2022-07-30T06:33:15.206Z,17.16
2022-07-30T06:38:17.432Z,17.33
2022-07-30T06:43:21.819Z,17.50
2022-07-30T06:48:25.804Z,17.72
2022-07-30T06:53:29.943Z,18.06
2022-07-30T06:58:34.115Z,18.22
2022-07-30T07:03:39.959Z,18.42
2022-07-30T07:08:42.439Z,18.49
2022-07-30T07:13:46.677Z,18.67
2022-07-30T07:18:50.736Z,18.81
2022-07-30T07:23:54.897Z,19.07
2022-07-30T07:29:02.210Z,19.23
2022-07-30T07:34:03.232Z,19.24
2022-07-30T07:39:07.386Z,19.37
2022-07-30T07:44:11.571Z,19.56
2022-07-30T07:49:15.784Z,19.38
2022-07-30T07:54:21.784Z,19.28
2022-07-30T07:59:36.406Z,19.33
2022-07-30T08:04:28.152Z,19.32
2022-07-30T08:09:44.089Z,19.35
2022-07-30T08:14:36.474Z,19.41
2022-07-30T08:24:44.820Z,19.47
2022-07-30T08:29:47.073Z,19.60
2022-07-30T08:34:51.249Z,19.56
2022-07-30T08:39:53.530Z,19.72
2022-07-30T08:44:57.650Z,19.91
2022-07-30T08:50:01.849Z,19.71
2022-07-30T08:55:06.308Z,19.76
2022-07-30T09:00:10.162Z,20.00
2022-07-30T09:05:14.997Z,20.24
2022-07-30T09:10:18.557Z,20.47
2022-07-30T09:15:22.609Z,20.66
2022-07-30T09:20:26.786Z,20.63
2022-07-30T09:25:30.952Z,20.91
2022-07-30T09:30:35.084Z,21.08
2022-07-30T09:35:39.254Z,21.33
2022-07-30T09:40:43.401Z,21.41
2022-07-30T09:45:57.479Z,21.52
2022-07-30T09:50:51.727Z,21.74
2022-07-30T09:55:56.091Z,21.92
2022-07-30T10:01:00.709Z,22.19
2022-07-30T10:06:04.208Z,22.27
2022-07-30T10:11:09.787Z,22.44
2022-07-30T10:16:14.057Z,22.49
2022-07-30T10:21:16.890Z,22.59
2022-07-30T10:26:18.979Z,22.70
2022-07-30T10:31:46.851Z,22.85
2022-07-30T10:36:25.367Z,23.09
2022-07-30T10:41:44.198Z,23.34
2022-07-30T10:46:31.795Z,23.19
2022-07-30T10:51:35.950Z,23.60
2022-07-30T10:56:40.151Z,23.58
2022-07-30T11:01:46.429Z,23.93
2022-07-30T11:06:48.479Z,24.14
2022-07-30T11:12:02.017Z,24.06
2022-07-30T11:16:56.745Z,24.26
2022-07-30T11:22:01.282Z,24.39
2022-07-30T11:27:05.043Z,24.53
2022-07-30T11:32:09.459Z,24.48
2022-07-30T11:37:18.269Z,24.61
2022-07-30T11:42:17.581Z,24.61
2022-07-30T11:47:21.718Z,24.76
2022-07-30T11:52:25.885Z,24.79
2022-07-30T11:57:30.046Z,24.79
2022-07-30T12:02:34.230Z,24.78
2022-07-30T12:07:38.333Z,24.77
2022-07-30T12:12:42.487Z,25.08
2022-07-30T12:17:46.654Z,25.17
2022-07-30T12:22:50.802Z,25.35
2022-07-30T12:27:55.167Z,25.44
2022-07-30T12:32:57.462Z,25.54
2022-07-30T12:38:01.406Z,25.52
2022-07-30T12:43:03.719Z,25.60
2022-07-30T12:48:07.816Z,25.77
2022-07-30T12:53:12.018Z,25.75
2022-07-30T12:58:16.182Z,25.91
2022-07-30T13:03:20.301Z,25.84
2022-07-30T13:08:24.473Z,26.04
2022-07-30T13:13:28.640Z,26.17
2022-07-30T13:18:32.774Z,26.08
2022-07-30T13:23:36.957Z,26.15
2022-07-30T13:28:41.641Z,26.04
2022-07-30T13:33:45.260Z,25.87
2022-07-30T13:38:52.390Z,25.72
2022-07-30T13:43:53.570Z,25.94
2022-07-30T13:48:57.820Z,25.87
2022-07-30T13:54:01.925Z,25.94
2022-07-30T13:59:06.035Z,25.92
2022-07-30T14:04:10.285Z,26.26
2022-07-30T14:09:14.377Z,26.54
2022-07-30T14:14:18.531Z,26.82
2022-07-30T14:19:23.870Z,26.78
2022-07-30T14:24:26.855Z,26.78
2022-07-30T14:29:29.110Z,26.95
2022-07-30T14:34:33.302Z,26.87
2022-07-30T14:39:37.436Z,27.11
2022-07-30T14:44:41.709Z,27.22
2022-07-30T14:49:45.756Z,27.38
2022-07-30T14:54:49.925Z,27.40
2022-07-30T14:59:54.072Z,27.45
2022-07-30T15:04:58.215Z,27.31
2022-07-30T15:10:02.371Z,27.60
2022-07-30T15:15:06.642Z,27.49
2022-07-30T15:20:10.696Z,27.43
2022-07-30T15:25:14.857Z,27.49
2022-07-30T15:30:19.022Z,27.55
2022-07-30T15:35:23.376Z,27.47
2022-07-30T15:40:27.319Z,27.65
2022-07-30T15:45:31.497Z,28.43
2022-07-30T15:50:35.682Z,29.98
2022-07-30T15:55:47.490Z,30.68
2022-07-30T16:00:43.969Z,31.71
2022-07-30T16:05:51.926Z,32.15
2022-07-30T16:10:52.285Z,32.02
2022-07-30T16:15:54.567Z,31.56
2022-07-30T16:20:58.753Z,32.26
2022-07-30T16:26:02.889Z,30.46
2022-07-30T16:31:07.275Z,31.13
2022-07-30T16:36:11.194Z,28.95
2022-07-30T16:41:15.365Z,28.11
2022-07-30T16:46:19.541Z,27.52
2022-07-30T16:51:23.700Z,27.33
2022-07-30T16:56:27.836Z,26.67
2022-07-30T17:01:32.114Z,28.19
2022-07-30T17:06:36.170Z,28.18
2022-07-30T17:11:46.476Z,27.67
2022-07-30T17:16:44.523Z,26.60
2022-07-30T17:21:48.651Z,25.82
2022-07-30T17:26:52.773Z,25.45
2022-07-30T17:31:56.989Z,25.22
2022-07-30T17:37:01.128Z,24.98
2022-07-30T17:42:05.309Z,24.78
2022-07-30T17:47:14.642Z,24.57
2022-07-30T17:52:13.575Z,24.46
2022-07-30T17:57:17.769Z,24.47
2022-07-30T18:02:20.136Z,24.42
2022-07-30T18:07:24.199Z,24.30
2022-07-30T18:12:26.448Z,24.22
2022-07-30T18:17:30.626Z,24.08
2022-07-30T18:22:32.884Z,23.98
2022-07-30T18:27:37.045Z,23.92
2022-07-30T18:32:41.240Z,23.86
2022-07-30T18:37:45.408Z,23.79
2022-07-30T18:42:49.592Z,23.74
2022-07-30T18:47:53.652Z,23.59
2022-07-30T18:52:58.016Z,23.49
2022-07-30T18:58:02.039Z,23.39
2022-07-30T19:03:06.978Z,23.23
2022-07-30T19:08:10.299Z,23.03
2022-07-30T19:13:14.488Z,22.85
2022-07-30T19:18:18.675Z,22.76
2022-07-30T19:23:22.811Z,22.69
2022-07-30T19:28:26.979Z,22.59
2022-07-30T19:33:31.077Z,22.44
2022-07-30T19:38:35.302Z,22.36
2022-07-30T19:43:39.411Z,22.27
2022-07-30T19:48:43.626Z,22.17
2022-07-30T19:53:47.754Z,22.00
2022-07-30T19:58:51.892Z,21.87
2022-07-30T20:03:56.092Z,21.77
2022-07-30T20:08:58.296Z,21.67
2022-07-30T20:14:02.486Z,21.58
2022-07-30T20:19:04.783Z,21.39
2022-07-30T20:24:08.910Z,21.25
2022-07-30T20:29:19.054Z,21.22
2022-07-30T20:34:17.989Z,21.14
2022-07-30T20:39:21.410Z,21.09
2022-07-30T20:44:25.555Z,21.05
2022-07-30T20:49:35.163Z,20.91
2022-07-30T20:54:33.870Z,20.87
2022-07-30T20:59:38.205Z,20.86
2022-07-30T21:04:42.170Z,20.78
2022-07-30T21:09:52.340Z,20.64
2022-07-30T21:14:50.539Z,20.55
2022-07-30T21:19:54.656Z,20.48
2022-07-30T21:24:58.840Z,20.40
2022-07-30T21:30:02.985Z,20.28
2022-07-30T21:40:11.327Z,20.25
2022-07-30T21:45:15.453Z,20.18
2022-07-30T21:50:19.641Z,20.12
2022-07-30T21:55:23.951Z,20.07
2022-07-30T22:00:27.911Z,19.94
2022-07-30T22:05:38.959Z,19.89
2022-07-30T22:10:34.343Z,19.81
2022-07-30T22:15:38.507Z,19.79
2022-07-30T22:20:40.777Z,19.76
2022-07-30T22:25:45.094Z,19.67
2022-07-30T22:30:49.100Z,19.63
2022-07-30T22:40:57.459Z,19.58
2022-07-30T22:46:01.595Z,19.57
2022-07-30T22:51:05.731Z,19.56
2022-07-30T22:56:14.316Z,19.48
2022-07-30T23:01:14.069Z,19.49
2022-07-30T23:06:20.733Z,19.46
2022-07-30T23:11:22.525Z,19.35
2022-07-30T23:16:26.583Z,19.33
2022-07-30T23:21:30.717Z,19.24
2022-07-30T23:26:34.840Z,19.23
2022-07-30T23:31:39.014Z,19.17
2022-07-30T23:36:43.178Z,19.14
2022-07-30T23:41:47.377Z,19.14
2022-07-30T23:46:51.473Z,19.10
2022-07-30T23:51:55.659Z,19.01
2022-07-30T23:57:00.043Z,18.92
